sensor_id;sensor_type;location;lat;lon;timestamp;pressure;altitude;pressure_sealevel;temperature;humidity
53546;BME280;39432;51.902;10.844;2022-12-18T00:00:39;100906.44;;;-8.16;100.00
53546;BME280;39432;51.902;10.844;2022-12-18T00:03:09;100907.72;;;-8.35;100.00
53546;BME280;39432;51.902;10.844;2022-12-18T00:05:46;100913.78;;;-8.07;100.00
53546;BME280;39432;51.902;10.844;2022-12-18T00:08:16;100913.03;;;-7.84;100.00
53546;BME280;39432;51.902;10.844;2022-12-18T00:10:48;100904.09;;;-7.83;100.00
53546;BME280;39432;51.902;10.844;2022-12-18T00:13:18;100907.72;;;-8.09;100.00
53546;BME280;39432;51.902;10.844;2022-12-18T00:15:48;100901.44;;;-8.34;100.00
53546;BME280;39432;51.902;10.844;2022-12-18T00:18:22;100899.75;;;-8.09;100.00
53546;BME280;39432;51.902;10.844;2022-12-18T00:20:52;100897.97;;;-8.22;100.00
53546;BME280;39432;51.902;10.844;2022-12-18T00:23:21;100906.44;;;-8.16;100.00
53546;BME280;39432;51.902;10.844;2022-12-18T00:25:54;100901.22;;;-8.31;100.00
53546;BME280;39432;51.902;10.844;2022-12-18T00:28:23;100907.94;;;-8.38;100.00
53546;BME280;39432;51.902;10.844;2022-12-18T00:31:00;100907.50;;;-8.32;100.00
53546;BME280;39432;51.902;10.844;2022-12-18T00:33:29;100907.94;;;-8.38;100.00
53546;BME280;39432;51.902;10.844;2022-12-18T00:36:00;100908.75;;;-8.25;100.00
53546;BME280;39432;51.902;10.844;2022-12-18T00:38:31;100913.44;;;-8.41;100.00
53546;BME280;39432;51.902;10.844;2022-12-18T00:41:05;100908.97;;;-8.53;100.00
53546;BME280;39432;51.902;10.844;2022-12-18T00:43:36;100904.63;;;-8.54;100.00
53546;BME280;39432;51.902;10.844;2022-12-18T00:46:04;100899.44;;;-8.43;100.00
53546;BME280;39432;51.902;10.844;2022-12-18T00:48:35;100909.72;;;-8.91;100.00
53546;BME280;39432;51.902;10.844;2022-12-18T00:51:06;100910.09;;;-8.70;100.00
53546;BME280;39432;51.902;10.844;2022-12-18T00:53:36;100912.09;;;-8.73;100.00
53546;BME280;39432;51.902;10.844;2022-12-18T00:56:09;100917.72;;;-8.78;100.00
53546;BME280;39432;51.902;10.844;2022-12-18T00:58:38;100919.53;;;-8.79;100.00
53546;BME280;39432;51.902;10.844;2022-12-18T01:01:09;100918.47;;;-9.03;100.00
53546;BME280;39432;51.902;10.844;2022-12-18T01:03:39;100915.16;;;-9.07;100.00
53546;BME280;39432;51.902;10.844;2022-12-18T01:06:11;100919.94;;;-9.12;100.00
53546;BME280;39432;51.902;10.844;2022-12-18T01:08:41;100923.91;;;-8.92;100.00
53546;BME280;39432;51.902;10.844;2022-12-18T01:11:16;100928.22;;;-8.77;100.00
53546;BME280;39432;51.902;10.844;2022-12-18T01:13:47;100922.59;;;-8.45;100.00
53546;BME280;39432;51.902;10.844;2022-12-18T01:16:17;100924.25;;;-8.57;100.00
53546;BME280;39432;51.902;10.844;2022-12-18T01:18:50;100934.69;;;-8.28;100.00
53546;BME280;39432;51.902;10.844;2022-12-18T01:21:21;100928.09;;;-8.23;100.00
53546;BME280;39432;51.902;10.844;2022-12-18T01:23:52;100930.00;;;-8.25;100.00
53546;BME280;39432;51.902;10.844;2022-12-18T01:26:25;100931.91;;;-8.27;100.00
53546;BME280;39432;51.902;10.844;2022-12-18T01:28:56;100932.38;;;-8.72;100.00
53546;BME280;39432;51.902;10.844;2022-12-18T01:31:27;100919.88;;;-8.58;100.00
53546;BME280;39432;51.902;10.844;2022-12-18T01:34:02;100930.19;;;-8.53;100.00
53546;BME280;39432;51.902;10.844;2022-12-18T01:36:36;100942.84;;;-8.84;100.00
53546;BME280;39432;51.902;10.844;2022-12-18T01:39:08;100935.97;;;-8.73;100.00
53546;BME280;39432;51.902;10.844;2022-12-18T01:41:44;100939.97;;;-8.81;100.00
53546;BME280;39432;51.902;10.844;2022-12-18T01:44:54;100952.09;;;-8.77;100.00
53546;BME280;39432;51.902;10.844;2022-12-18T01:47:27;100946.97;;;-8.53;100.00
53546;BME280;39432;51.902;10.844;2022-12-18T01:50:01;100957.53;;;-8.65;100.00
53546;BME280;39432;51.902;10.844;2022-12-18T01:52:32;100955.69;;;-8.51;100.00
53546;BME280;39432;51.902;10.844;2022-12-18T01:55:07;100948.78;;;-8.80;100.00
53546;BME280;39432;51.902;10.844;2022-12-18T01:57:41;100947.53;;;-8.74;100.00
53546;BME280;39432;51.902;10.844;2022-12-18T02:00:14;100947.19;;;-8.83;100.00
53546;BME280;39432;51.902;10.844;2022-12-18T02:02:46;100947.75;;;-8.78;100.00
53546;BME280;39432;51.902;10.844;2022-12-18T02:05:21;100954.53;;;-8.73;100.00
53546;BME280;39432;51.902;10.844;2022-12-18T02:08:01;100954.38;;;-8.85;100.00
53546;BME280;39432;51.902;10.844;2022-12-18T02:10:37;100961.28;;;-8.82;100.00
53546;BME280;39432;51.902;10.844;2022-12-18T02:13:20;100951.94;;;-8.61;100.00
53546;BME280;39432;51.902;10.844;2022-12-18T02:15:58;100954.34;;;-8.70;100.00
53546;BME280;39432;51.902;10.844;2022-12-18T02:18:36;100954.63;;;-8.48;100.00
53546;BME280;39432;51.902;10.844;2022-12-18T02:21:12;100940.22;;;-8.18;100.00
53546;BME280;39432;51.902;10.844;2022-12-18T02:23:50;100941.88;;;-8.30;100.00
53546;BME280;39432;51.902;10.844;2022-12-18T02:26:28;100951.66;;;-9.24;100.00
53546;BME280;39432;51.902;10.844;2022-12-18T02:29:03;100958.03;;;-9.70;100.00
53546;BME280;39432;51.902;10.844;2022-12-18T02:31:39;100954.25;;;-9.66;100.00
53546;BME280;39432;51.902;10.844;2022-12-18T02:34:11;100957.56;;;-9.34;100.00
53546;BME280;39432;51.902;10.844;2022-12-18T02:36:42;100958.91;;;-8.99;100.00
53546;BME280;39432;51.902;10.844;2022-12-18T02:39:13;100965.44;;;-9.05;100.00
53546;BME280;39432;51.902;10.844;2022-12-18T02:41:59;100953.84;;;-8.90;100.00
53546;BME280;39432;51.902;10.844;2022-12-18T02:44:39;100949.94;;;-8.84;100.00
53546;BME280;39432;51.902;10.844;2022-12-18T02:47:16;100956.50;;;-8.90;100.00
53546;BME280;39432;51.902;10.844;2022-12-18T02:49:55;100950.69;;;-9.09;100.00
53546;BME280;39432;51.902;10.844;2022-12-18T02:52:34;100957.13;;;-9.13;100.00
53546;BME280;39432;51.902;10.844;2022-12-18T02:55:15;100952.06;;;-9.59;100.00
53546;BME280;39432;51.902;10.844;2022-12-18T02:57:55;100957.56;;;-9.76;100.00
53546;BME280;39432;51.902;10.844;2022-12-18T03:00:36;100950.34;;;-9.46;100.00
53546;BME280;39432;51.902;10.844;2022-12-18T03:03:14;100956.22;;;-9.26;100.00
53546;BME280;39432;51.902;10.844;2022-12-18T03:05:50;100962.09;;;-9.64;100.00
53546;BME280;39432;51.902;10.844;2022-12-18T03:08:25;100973.53;;;-9.78;100.00
53546;BME280;39432;51.902;10.844;2022-12-18T03:11:01;100968.44;;;-9.52;100.00
53546;BME280;39432;51.902;10.844;2022-12-18T03:13:37;100965.69;;;-9.65;100.00
53546;BME280;39432;51.902;10.844;2022-12-18T03:16:15;100968.16;;;-9.48;100.00
53546;BME280;39432;51.902;10.844;2022-12-18T03:18:51;100959.75;;;-8.99;100.00
53546;BME280;39432;51.902;10.844;2022-12-18T03:21:26;100968.66;;;-9.00;100.00
53546;BME280;39432;51.902;10.844;2022-12-18T03:23:58;100969.81;;;-9.18;100.00
53546;BME280;39432;51.902;10.844;2022-12-18T03:26:29;100964.84;;;-9.66;100.00
53546;BME280;39432;51.902;10.844;2022-12-18T03:29:07;100960.56;;;-9.40;100.00
53546;BME280;39432;51.902;10.844;2022-12-18T03:31:39;100970.78;;;-9.34;100.00
53546;BME280;39432;51.902;10.844;2022-12-18T03:34:14;100954.34;;;-9.53;100.00
53546;BME280;39432;51.902;10.844;2022-12-18T03:36:46;100953.38;;;-9.52;100.00
53546;BME280;39432;51.902;10.844;2022-12-18T03:39:16;100948.28;;;-9.41;100.00
53546;BME280;39432;51.902;10.844;2022-12-18T03:41:59;100951.34;;;-9.61;100.00
53546;BME280;39432;51.902;10.844;2022-12-18T03:44:43;100948.28;;;-9.84;100.00
53546;BME280;39432;51.902;10.844;2022-12-18T03:47:18;100950.75;;;-9.80;100.00
53546;BME280;39432;51.902;10.844;2022-12-18T03:49:57;100952.06;;;-9.73;100.00
53546;BME280;39432;51.902;10.844;2022-12-18T03:52:37;100948.09;;;-9.52;100.00
53546;BME280;39432;51.902;10.844;2022-12-18T03:55:09;100940.63;;;-9.60;100.00
53546;BME280;39432;51.902;10.844;2022-12-18T03:57:44;100926.72;;;-9.63;100.00
53546;BME280;39432;51.902;10.844;2022-12-18T04:00:18;100927.84;;;-9.53;100.00
53546;BME280;39432;51.902;10.844;2022-12-18T04:02:55;100920.47;;;-9.62;100.00
53546;BME280;39432;51.902;10.844;2022-12-18T04:05:34;100930.88;;;-9.73;100.00
53546;BME280;39432;51.902;10.844;2022-12-18T04:08:06;100942.63;;;-9.92;100.00
53546;BME280;39432;51.902;10.844;2022-12-18T04:10:41;100941.78;;;-9.92;100.00
53546;BME280;39432;51.902;10.844;2022-12-18T04:13:12;100932.03;;;-9.92;100.00
53546;BME280;39432;51.902;10.844;2022-12-18T04:15:44;100935.41;;;-9.90;100.00
53546;BME280;39432;51.902;10.844;2022-12-18T04:18:15;100941.31;;;-9.99;100.00
53546;BME280;39432;51.902;10.844;2022-12-18T04:20:46;100933.72;;;-9.62;100.00
53546;BME280;39432;51.902;10.844;2022-12-18T04:23:17;100929.97;;;-9.87;100.00
53546;BME280;39432;51.902;10.844;2022-12-18T04:25:47;100923.13;;;-9.62;100.00
53546;BME280;39432;51.902;10.844;2022-12-18T04:28:26;100921.59;;;-9.52;100.00
53546;BME280;39432;51.902;10.844;2022-12-18T04:30:59;100931.47;;;-9.68;100.00
53546;BME280;39432;51.902;10.844;2022-12-18T04:33:29;100931.97;;;-9.35;100.00
53546;BME280;39432;51.902;10.844;2022-12-18T04:35:59;100927.28;;;-9.44;100.00
53546;BME280;39432;51.902;10.844;2022-12-18T04:38:29;100921.31;;;-9.47;100.00
53546;BME280;39432;51.902;10.844;2022-12-18T04:41:05;100926.47;;;-9.87;100.00
53546;BME280;39432;51.902;10.844;2022-12-18T04:43:36;100923.69;;;-10.00;100.00
53546;BME280;39432;51.902;10.844;2022-12-18T04:46:09;100932.47;;;-10.14;100.00
53546;BME280;39432;51.902;10.844;2022-12-18T04:48:40;100925.41;;;-9.70;100.00
53546;BME280;39432;51.902;10.844;2022-12-18T04:51:09;100939.78;;;-10.03;100.00
53546;BME280;39432;51.902;10.844;2022-12-18T04:53:39;100946.66;;;-10.00;100.00
53546;BME280;39432;51.902;10.844;2022-12-18T04:56:11;100946.38;;;-9.67;100.00
53546;BME280;39432;51.902;10.844;2022-12-18T04:58:45;100954.13;;;-10.07;100.00
53546;BME280;39432;51.902;10.844;2022-12-18T05:01:18;100952.53;;;-10.10;100.00
53546;BME280;39432;51.902;10.844;2022-12-18T05:03:48;100960.19;;;-10.05;100.00
53546;BME280;39432;51.902;10.844;2022-12-18T05:06:18;100956.03;;;-9.52;100.00
53546;BME280;39432;51.902;10.844;2022-12-18T05:08:51;100958.00;;;-9.41;100.00
53546;BME280;39432;51.902;10.844;2022-12-18T05:11:21;100965.16;;;-9.15;100.00
53546;BME280;39432;51.902;10.844;2022-12-18T05:13:50;100963.78;;;-9.92;100.00
53546;BME280;39432;51.902;10.844;2022-12-18T05:16:23;100974.59;;;-9.66;100.00
53546;BME280;39432;51.902;10.844;2022-12-18T05:18:53;100964.44;;;-9.31;100.00
53546;BME280;39432;51.902;10.844;2022-12-18T05:21:22;100947.31;;;-9.25;100.00
53546;BME280;39432;51.902;10.844;2022-12-18T05:23:52;100948.31;;;-9.55;100.00
53546;BME280;39432;51.902;10.844;2022-12-18T05:26:22;100946.97;;;-9.48;100.00
53546;BME280;39432;51.902;10.844;2022-12-18T05:28:52;100945.91;;;-9.45;100.00
53546;BME280;39432;51.902;10.844;2022-12-18T05:31:24;100946.38;;;-8.97;100.00
53546;BME280;39432;51.902;10.844;2022-12-18T05:33:54;100944.13;;;-9.59;100.00
53546;BME280;39432;51.902;10.844;2022-12-18T05:36:24;100946.38;;;-9.67;100.00
53546;BME280;39432;51.902;10.844;2022-12-18T05:38:54;100949.06;;;-9.82;100.00
53546;BME280;39432;51.902;10.844;2022-12-18T05:41:23;100962.66;;;-9.73;100.00
53546;BME280;39432;51.902;10.844;2022-12-18T05:43:53;100958.03;;;-9.70;100.00
53546;BME280;39432;51.902;10.844;2022-12-18T05:46:26;100963.03;;;-9.51;100.00
53546;BME280;39432;51.902;10.844;2022-12-18T05:48:59;100963.81;;;-9.77;100.00
53546;BME280;39432;51.902;10.844;2022-12-18T05:51:29;100949.41;;;-9.73;100.00
53546;BME280;39432;51.902;10.844;2022-12-18T05:53:59;100962.00;;;-9.91;100.00
53546;BME280;39432;51.902;10.844;2022-12-18T05:56:29;100961.97;;;-10.20;100.00
53546;BME280;39432;51.902;10.844;2022-12-18T05:58:59;100973.28;;;-10.18;100.00
53546;BME280;39432;51.902;10.844;2022-12-18T06:01:31;100961.09;;;-10.20;100.00
53546;BME280;39432;51.902;10.844;2022-12-18T06:04:01;100964.06;;;-10.11;100.00
53546;BME280;39432;51.902;10.844;2022-12-18T06:06:32;100952.72;;;-9.98;100.00
53546;BME280;39432;51.902;10.844;2022-12-18T06:09:03;100960.56;;;-9.97;100.00
53546;BME280;39432;51.902;10.844;2022-12-18T06:11:36;100960.59;;;-9.83;100.00
53546;BME280;39432;51.902;10.844;2022-12-18T06:14:06;100958.56;;;-10.07;100.00
53546;BME280;39432;51.902;10.844;2022-12-18T06:16:39;100965.22;;;-10.45;100.00
53546;BME280;39432;51.902;10.844;2022-12-18T06:19:14;100963.75;;;-10.34;100.00
53546;BME280;39432;51.902;10.844;2022-12-18T06:21:44;100965.56;;;-10.06;100.00
53546;BME280;39432;51.902;10.844;2022-12-18T06:24:14;100977.94;;;-10.21;100.00
53546;BME280;39432;51.902;10.844;2022-12-18T06:26:44;100973.69;;;-10.24;100.00
53546;BME280;39432;51.902;10.844;2022-12-18T06:29:14;100978.53;;;-9.73;100.00
53546;BME280;39432;51.902;10.844;2022-12-18T06:31:47;100981.28;;;-9.46;100.00
53546;BME280;39432;51.902;10.844;2022-12-18T06:34:17;100985.69;;;-10.32;100.00
53546;BME280;39432;51.902;10.844;2022-12-18T06:36:47;100981.91;;;-10.00;100.00
53546;BME280;39432;51.902;10.844;2022-12-18T06:39:16;100980.03;;;-9.98;100.00
53546;BME280;39432;51.902;10.844;2022-12-18T06:41:46;100983.91;;;-9.89;100.00
53546;BME280;39432;51.902;10.844;2022-12-18T06:44:16;100982.44;;;-10.38;100.00
53546;BME280;39432;51.902;10.844;2022-12-18T06:46:51;100989.09;;;-10.02;100.00
53546;BME280;39432;51.902;10.844;2022-12-18T06:49:21;100993.88;;;-10.23;100.00
53546;BME280;39432;51.902;10.844;2022-12-18T06:51:56;100988.72;;;-10.24;100.00
53546;BME280;39432;51.902;10.844;2022-12-18T06:54:26;100985.56;;;-10.17;100.00
53546;BME280;39432;51.902;10.844;2022-12-18T06:56:56;100990.00;;;-10.17;100.00
53546;BME280;39432;51.902;10.844;2022-12-18T06:59:26;100990.06;;;-10.03;100.00
53546;BME280;39432;51.902;10.844;2022-12-18T07:01:58;100986.78;;;-10.22;100.00
53546;BME280;39432;51.902;10.844;2022-12-18T07:04:28;100986.22;;;-9.83;100.00
53546;BME280;39432;51.902;10.844;2022-12-18T07:06:58;100978.00;;;-9.64;100.00
53546;BME280;39432;51.902;10.844;2022-12-18T07:09:28;100983.81;;;-10.16;100.00
53546;BME280;39432;51.902;10.844;2022-12-18T07:11:58;100985.97;;;-10.09;100.00
53546;BME280;39432;51.902;10.844;2022-12-18T07:14:28;101002.75;;;-9.79;100.00
53546;BME280;39432;51.902;10.844;2022-12-18T07:17:01;101003.97;;;-9.99;100.00
53546;BME280;39432;51.902;10.844;2022-12-18T07:19:32;101021.78;;;-9.44;100.00
53546;BME280;39432;51.902;10.844;2022-12-18T07:22:02;101010.03;;;-9.26;100.00
53546;BME280;39432;51.902;10.844;2022-12-18T07:24:32;101026.31;;;-9.46;100.00
53546;BME280;39432;51.902;10.844;2022-12-18T07:27:02;101033.13;;;-9.57;100.00
53546;BME280;39432;51.902;10.844;2022-12-18T07:29:33;101026.22;;;-9.45;100.00
53546;BME280;39432;51.902;10.844;2022-12-18T07:32:06;101028.47;;;-9.67;100.00
53546;BME280;39432;51.902;10.844;2022-12-18T07:34:38;101042.56;;;-9.81;100.00
53546;BME280;39432;51.902;10.844;2022-12-18T07:37:08;101045.06;;;-9.49;100.00
53546;BME280;39432;51.902;10.844;2022-12-18T07:39:37;101054.41;;;-9.58;100.00
53546;BME280;39432;51.902;10.844;2022-12-18T07:42:07;101047.22;;;-9.13;100.00
53546;BME280;39432;51.902;10.844;2022-12-18T07:44:50;101053.00;;;-9.35;100.00
53546;BME280;39432;51.902;10.844;2022-12-18T07:47:23;101053.41;;;-9.86;100.00
53546;BME280;39432;51.902;10.844;2022-12-18T07:49:53;101058.91;;;-9.89;100.00
53546;BME280;39432;51.902;10.844;2022-12-18T07:52:24;101059.19;;;-10.23;100.00
53546;BME280;39432;51.902;10.844;2022-12-18T07:54:54;101055.72;;;-9.65;100.00
53546;BME280;39432;51.902;10.844;2022-12-18T07:57:24;101058.38;;;-9.51;100.00
53546;BME280;39432;51.902;10.844;2022-12-18T08:00:14;101060.09;;;-9.50;100.00
53546;BME280;39432;51.902;10.844;2022-12-18T08:02:47;101068.69;;;-9.61;100.00
53546;BME280;39432;51.902;10.844;2022-12-18T08:05:17;101068.03;;;-9.50;100.00
53546;BME280;39432;51.902;10.844;2022-12-18T08:07:47;101075.13;;;-9.95;100.00
53546;BME280;39432;51.902;10.844;2022-12-18T08:10:17;101078.63;;;-9.50;100.00
53546;BME280;39432;51.902;10.844;2022-12-18T08:12:49;101075.88;;;-9.48;100.00
53546;BME280;39432;51.902;10.844;2022-12-18T08:15:18;101078.66;;;-9.80;100.00
53546;BME280;39432;51.902;10.844;2022-12-18T08:17:51;101083.00;;;-9.20;100.00
53546;BME280;39432;51.902;10.844;2022-12-18T08:20:20;101073.97;;;-10.05;100.00
53546;BME280;39432;51.902;10.844;2022-12-18T08:22:50;101065.75;;;-9.56;100.00
53546;BME280;39432;51.902;10.844;2022-12-18T08:25:20;101071.47;;;-9.78;100.00
53546;BME280;39432;51.902;10.844;2022-12-18T08:27:50;101071.56;;;-9.79;100.00
53546;BME280;39432;51.902;10.844;2022-12-18T08:30:20;101061.22;;;-9.54;100.00
53546;BME280;39432;51.902;10.844;2022-12-18T08:32:53;101062.94;;;-9.39;100.00
53546;BME280;39432;51.902;10.844;2022-12-18T08:35:23;101046.56;;;-9.17;100.00
53546;BME280;39432;51.902;10.844;2022-12-18T08:38:01;101052.34;;;-9.39;100.00
53546;BME280;39432;51.902;10.844;2022-12-18T08:40:31;101050.63;;;-9.40;100.00
53546;BME280;39432;51.902;10.844;2022-12-18T08:43:00;101045.28;;;-8.83;100.00
53546;BME280;39432;51.902;10.844;2022-12-18T08:45:43;101045.13;;;-9.08;100.00
53546;BME280;39432;51.902;10.844;2022-12-18T08:48:15;101044.94;;;-9.05;100.00
53546;BME280;39432;51.902;10.844;2022-12-18T08:50:53;101037.91;;;-8.78;100.00
53546;BME280;39432;51.902;10.844;2022-12-18T08:53:23;101038.41;;;-8.58;100.00
53546;BME280;39432;51.902;10.844;2022-12-18T08:55:59;101030.22;;;-8.28;100.00
53546;BME280;39432;51.902;10.844;2022-12-18T08:58:29;101021.78;;;-7.95;100.00
53546;BME280;39432;51.902;10.844;2022-12-18T09:01:00;101022.69;;;-7.56;100.00
53546;BME280;39432;51.902;10.844;2022-12-18T09:03:33;101010.13;;;-7.54;100.00
53546;BME280;39432;51.902;10.844;2022-12-18T09:06:04;101010.63;;;-7.75;100.00
53546;BME280;39432;51.902;10.844;2022-12-18T09:08:34;101008.53;;;-7.44;100.00
53546;BME280;39432;51.902;10.844;2022-12-18T09:11:12;101011.50;;;-7.49;100.00
53546;BME280;39432;51.902;10.844;2022-12-18T09:13:42;100996.31;;;-7.34;100.00
53546;BME280;39432;51.902;10.844;2022-12-18T09:16:12;101006.19;;;-7.36;100.00
53546;BME280;39432;51.902;10.844;2022-12-18T09:18:45;101006.06;;;-7.47;100.00
53546;BME280;39432;51.902;10.844;2022-12-18T09:21:16;101007.97;;;-7.75;100.00
53546;BME280;39432;51.902;10.844;2022-12-18T09:23:49;101014.78;;;-7.96;100.00
53546;BME280;39432;51.902;10.844;2022-12-18T09:26:19;101012.22;;;-8.10;100.00
53546;BME280;39432;51.902;10.844;2022-12-18T09:28:49;101003.41;;;-7.98;100.00
53546;BME280;39432;51.902;10.844;2022-12-18T09:31:21;100998.50;;;-8.04;100.00
53546;BME280;39432;51.902;10.844;2022-12-18T09:33:54;100987.81;;;-7.90;100.00
53546;BME280;39432;51.902;10.844;2022-12-18T09:36:24;100991.75;;;-7.45;100.00
53546;BME280;39432;51.902;10.844;2022-12-18T09:38:54;100986.59;;;-7.22;100.00
53546;BME280;39432;51.902;10.844;2022-12-18T09:41:39;101005.34;;;-6.87;100.00
53546;BME280;39432;51.902;10.844;2022-12-18T09:44:16;100996.41;;;-6.86;100.00
53546;BME280;39432;51.902;10.844;2022-12-18T09:46:55;100990.19;;;-6.74;100.00
53546;BME280;39432;51.902;10.844;2022-12-18T09:49:32;100996.78;;;-6.43;100.00
53546;BME280;39432;51.902;10.844;2022-12-18T09:52:08;100989.47;;;-6.17;100.00
53546;BME280;39432;51.902;10.844;2022-12-18T09:54:39;100992.84;;;-6.26;100.00
53546;BME280;39432;51.902;10.844;2022-12-18T09:57:13;100977.19;;;-5.95;100.00
53546;BME280;39432;51.902;10.844;2022-12-18T09:59:46;100985.44;;;-5.87;100.00
53546;BME280;39432;51.902;10.844;2022-12-18T10:02:20;100969.22;;;-5.73;100.00
53546;BME280;39432;51.902;10.844;2022-12-18T10:05:02;100961.72;;;-5.57;100.00
53546;BME280;39432;51.902;10.844;2022-12-18T10:10:38;100959.66;;;-5.31;100.00
53546;BME280;39432;51.902;10.844;2022-12-18T10:13:15;100955.16;;;-5.19;100.00
53546;BME280;39432;51.902;10.844;2022-12-18T10:15:57;100951.31;;;-5.15;100.00
53546;BME280;39432;51.902;10.844;2022-12-18T10:18:41;100956.38;;;-5.12;100.00
53546;BME280;39432;51.902;10.844;2022-12-18T10:21:28;100958.09;;;-5.11;100.00
53546;BME280;39432;51.902;10.844;2022-12-18T10:24:03;100958.44;;;-5.04;100.00
53546;BME280;39432;51.902;10.844;2022-12-18T10:26:39;100968.47;;;-4.96;100.00
53546;BME280;39432;51.902;10.844;2022-12-18T10:29:13;100961.03;;;-4.70;100.00
53546;BME280;39432;51.902;10.844;2022-12-18T10:31:43;100977.38;;;-4.64;100.00
53546;BME280;39432;51.902;10.844;2022-12-18T10:34:13;100978.34;;;-4.54;100.00
53546;BME280;39432;51.902;10.844;2022-12-18T10:36:47;100973.03;;;-4.65;100.00
53546;BME280;39432;51.902;10.844;2022-12-18T10:39:20;100992.78;;;-4.67;100.00
53546;BME280;39432;51.902;10.844;2022-12-18T10:41:51;100994.81;;;-4.48;100.00
53546;BME280;39432;51.902;10.844;2022-12-18T10:44:26;100991.47;;;-4.73;100.00
53546;BME280;39432;51.902;10.844;2022-12-18T10:47:03;100996.25;;;-4.88;100.00
53546;BME280;39432;51.902;10.844;2022-12-18T10:49:45;100989.13;;;-4.98;100.00
53546;BME280;39432;51.902;10.844;2022-12-18T10:52:22;100992.63;;;-5.09;100.00
53546;BME280;39432;51.902;10.844;2022-12-18T10:54:54;101001.97;;;-5.04;100.00
53546;BME280;39432;51.902;10.844;2022-12-18T10:57:33;100988.50;;;-5.02;100.00
53546;BME280;39432;51.902;10.844;2022-12-18T11:00:21;100985.69;;;-5.00;100.00
53546;BME280;39432;51.902;10.844;2022-12-18T11:02:52;100980.00;;;-5.07;100.00
53546;BME280;39432;51.902;10.844;2022-12-18T11:05:27;100974.06;;;-4.88;100.00
53546;BME280;39432;51.902;10.844;2022-12-18T11:08:01;100976.34;;;-4.84;100.00
53546;BME280;39432;51.902;10.844;2022-12-18T11:10:33;100973.09;;;-4.98;100.00
53546;BME280;39432;51.902;10.844;2022-12-18T11:13:11;100967.47;;;-4.84;100.00
53546;BME280;39432;51.902;10.844;2022-12-18T11:15:42;100957.47;;;-4.60;100.00
53546;BME280;39432;51.902;10.844;2022-12-18T11:21:39;100954.34;;;-4.33;100.00
53546;BME280;39432;51.902;10.844;2022-12-18T11:24:20;100945.38;;;-3.90;100.00
53546;BME280;39432;51.902;10.844;2022-12-18T11:26:50;100946.31;;;-3.70;100.00
53546;BME280;39432;51.902;10.844;2022-12-18T11:29:32;100929.97;;;-3.77;100.00
53546;BME280;39432;51.902;10.844;2022-12-18T11:32:29;100938.75;;;-3.65;100.00
53546;BME280;39432;51.902;10.844;2022-12-18T11:35:04;100922.25;;;-3.70;100.00
53546;BME280;39432;51.902;10.844;2022-12-18T11:37:42;100910.88;;;-3.72;100.00
53546;BME280;39432;51.902;10.844;2022-12-18T11:40:18;100907.53;;;-3.85;100.00
53546;BME280;39432;51.902;10.844;2022-12-18T11:42:52;100905.50;;;-3.72;100.00
53546;BME280;39432;51.902;10.844;2022-12-18T11:45:27;100899.88;;;-3.69;100.00
53546;BME280;39432;51.902;10.844;2022-12-18T11:48:02;100904.00;;;-3.65;100.00
53546;BME280;39432;51.902;10.844;2022-12-18T11:50:44;100917.56;;;-3.47;100.00
53546;BME280;39432;51.902;10.844;2022-12-18T11:53:15;100924.41;;;-3.33;100.00
53546;BME280;39432;51.902;10.844;2022-12-18T11:56:11;100922.91;;;-3.16;100.00
53546;BME280;39432;51.902;10.844;2022-12-18T11:58:51;100922.09;;;-2.98;100.00
53546;BME280;39432;51.902;10.844;2022-12-18T12:01:35;100923.78;;;-3.06;100.00
53546;BME280;39432;51.902;10.844;2022-12-18T12:04:49;100932.06;;;-3.09;100.00
53546;BME280;39432;51.902;10.844;2022-12-18T12:07:31;100930.78;;;-3.15;100.00
53546;BME280;39432;51.902;10.844;2022-12-18T12:10:10;100922.63;;;-3.23;100.00
53546;BME280;39432;51.902;10.844;2022-12-18T12:12:57;100928.88;;;-2.94;100.00
53546;BME280;39432;51.902;10.844;2022-12-18T12:15:34;100918.88;;;-2.92;100.00
53546;BME280;39432;51.902;10.844;2022-12-18T12:18:15;100929.97;;;-3.06;100.00
53546;BME280;39432;51.902;10.844;2022-12-18T12:20:55;100923.63;;;-3.05;100.00
53546;BME280;39432;51.902;10.844;2022-12-18T12:23:34;100916.78;;;-2.78;100.00
53546;BME280;39432;51.902;10.844;2022-12-18T12:26:08;100919.34;;;-2.67;100.00
53546;BME280;39432;51.902;10.844;2022-12-18T12:29:05;100907.66;;;-2.47;100.00
53546;BME280;39432;51.902;10.844;2022-12-18T12:31:54;100897.06;;;-2.39;100.00
53546;BME280;39432;51.902;10.844;2022-12-18T12:34:33;100881.81;;;-2.28;100.00
53546;BME280;39432;51.902;10.844;2022-12-18T12:37:11;100889.44;;;-2.43;100.00
53546;BME280;39432;51.902;10.844;2022-12-18T12:39:47;100889.19;;;-2.40;100.00
53546;BME280;39432;51.902;10.844;2022-12-18T12:42:26;100882.97;;;-2.41;100.00
53546;BME280;39432;51.902;10.844;2022-12-18T12:45:20;100886.63;;;-2.32;100.00
53546;BME280;39432;51.902;10.844;2022-12-18T12:47:53;100879.03;;;-2.66;100.00
53546;BME280;39432;51.902;10.844;2022-12-18T12:50:24;100878.88;;;-2.64;100.00
53546;BME280;39432;51.902;10.844;2022-12-18T12:52:56;100872.81;;;-2.85;100.00
53546;BME280;39432;51.902;10.844;2022-12-18T12:55:28;100880.69;;;-2.94;100.00
53546;BME280;39432;51.902;10.844;2022-12-18T12:58:05;100881.63;;;-3.14;100.00
53546;BME280;39432;51.902;10.844;2022-12-18T13:00:45;100876.13;;;-3.22;100.00
53546;BME280;39432;51.902;10.844;2022-12-18T13:03:29;100871.81;;;-3.54;100.00
53546;BME280;39432;51.902;10.844;2022-12-18T13:06:08;100866.41;;;-3.73;100.00
53546;BME280;39432;51.902;10.844;2022-12-18T13:08:54;100867.44;;;-3.85;100.00